Airfield :
LOGIN :

Register | Disclaimer

   EN    FR    IT 

 










Legend :    VFR   Marginal VFR   IFR   Intensive IFR   Very Intensive IFR
Visi :
Ceiling :
>= 8 km
>= 3000ft
5 to 8 km
1000 to 3000 ft
1500m to 5 km
500 to 1000 ft
800 to 1500m
200 to 500 ft
< 800m
< 200 ft
Symbols :   Thunderstorms  Fog  Heavy snow  Heavy precipitations  Wind > 20 kt
SIGMETs :     Misc.  Thunderstorms  Icing  Turbulence  Mountain Waves  Volcanic Ashes






- Airport Elevation : 10 ft
- IATA code : AAL


EKYT - Aalborg

CURRENT METAR :
  • 210020Z AUTO 27014KT 9999 BKN130/// BKN150/// 05/02 Q0998

EXPIRED METARs :
  • 202350Z AUTO 28016KT 9999 FEW110/// SCT140/// 05/02 Q0997
  • 202320Z AUTO 27015KT 9999 FEW025/// BKN110/// 05/03 Q0996
  • 202250Z AUTO 29013KT 9999 FEW024/// SCT065/// 05/03 Q0995
  • 202220Z AUTO 27014KT 9999 -SHRA FEW017/// BKN045/// BKN065/// 05/03 Q0995
  • 202150Z AUTO 27013KT 9999 -RA FEW018/// SCT024/// BKN030/// OVC037/// 05/04 Q0994

TAF TAF EKYT
Valid from the 21 at 00:00 until the 22 at 00:00 UTC


202324Z 2100/2124 28014KT 9999 SCT020
TEMPO 2100/2106 27018G30KT 7000 -SHRASN SCT020CB
TEMPO 2106/2115 25018G30KT
BECMG 2115/2118 23022G32KT 7000 -RADZ BKN012
TEMPO 2118/2124 4000 RADZ BR BKN008



MET'MAP, your aeronautical weather chart ! - Copyright ORBIFLY December 2007 - Disclaimer

ORBIFLY MET'MAP TEAM :

Programming & Development : Alexandra Zaïnal
Concept & original design : Baudouin d'Aumeries
Assistance for programming : Marc-Olivier Méhu
Technical & hardware support : Manuel Goepfert

Contact : metmap@orbifly.com




SOURCES & CREDITS :

   NOAA